Aérodrome :
LOGIN :

S'inscrire | Disclaimer

   EN    FR    IT 

 










Légende :    VFR   VFR Marginal   IFR   IFR Intensif   IFR Très Intensif
Visi : 
Plafond : 
>= 8 km
>= 3000ft
5 à 8 km
1000 à 3000 ft
1500m à 5 km
500 à 1000 ft
800 à 1500m
200 à 500 ft
< 800m
< 200 ft
Symboles :   Orages  Brouillard  Fortes neiges  Fortes précipitations  Vent > 20 kt
SIGMETs :   Divers  Orages  Givrage  Turbulence  Onde Orograph.  Cendres Volcan.







- Altitude de l'aérodrome : 171 ft
- Code IATA : EGC
- Voir les cartes d'approche


LFBE - Bergerac

DERNIER METAR :
  • 200330Z AUTO 00000KT 4900 BR OVC020 04/04 Q1025

METARs EXPIRÉS :
  • 200300Z AUTO 00000KT 4400 BR OVC020 04/04 Q1025
  • 200230Z AUTO VRB02KT 4000 BR OVC018 04/03 Q1025
  • 200200Z AUTO 00000KT 4000 BR OVC014 03/03 Q1026
  • 200130Z AUTO 07003KT 1900 BR BKN016 02/01 Q1026
  • 200100Z AUTO VRB01KT 3400 BR BKN013 02/01 Q1026

TAF AMD TAF LFBE
Valide du 19 à 19h jusqu'au 20 à 18h UTC


191916Z 1919/2018 35003KT CAVOK
BECMG 1919/1921 4000 BR
PROB40 1920/2009 0200 FG VV///
BECMG 2006/2008 BKN012
BECMG 2013/2015 CAVOK
Pas de NOTAMs connus pour ce terrain.



MET'MAP, la Météo Aéronautique d'un coup d'oeil ! - Copyright ORBIFLY Décembre 2007 - Disclaimer

ORBIFLY MET'MAP TEAM :

Programmation & Développement : Alexandra Zaïnal
Conception & Développement : Baudouin d'Aumeries
Co-Programmation & Développement : Marc-Olivier Méhu
Soutien technique & logistique : Manuel Goepfert

Contact : metmap@orbifly.com




SOURCES & CREDITS :

   NOAA